sensor_id;sensor_type;location;lat;lon;timestamp;pressure;altitude;pressure_sealevel;temperature;humidity
59443;BME280;45247;47.466;19.004;2023-07-20T00:01:43;99192.59;;;21.48;100.00
59443;BME280;45247;47.466;19.004;2023-07-20T00:04:11;99192.16;;;21.37;100.00
59443;BME280;45247;47.466;19.004;2023-07-20T00:06:40;99187.66;;;21.29;100.00
59443;BME280;45247;47.466;19.004;2023-07-20T00:09:09;99190.69;;;21.26;100.00
59443;BME280;45247;47.466;19.004;2023-07-20T00:11:38;99180.16;;;21.24;100.00
59443;BME280;45247;47.466;19.004;2023-07-20T00:14:07;99175.47;;;21.18;100.00
59443;BME280;45247;47.466;19.004;2023-07-20T00:16:35;99176.19;;;21.12;100.00
59443;BME280;45247;47.466;19.004;2023-07-20T00:19:04;99176.34;;;21.11;100.00
59443;BME280;45247;47.466;19.004;2023-07-20T00:21:33;99167.84;;;21.30;100.00
59443;BME280;45247;47.466;19.004;2023-07-20T00:24:02;99167.84;;;21.38;100.00
59443;BME280;45247;47.466;19.004;2023-07-20T00:26:30;99173.53;;;21.58;100.00
59443;BME280;45247;47.466;19.004;2023-07-20T00:28:58;99169.69;;;21.61;100.00
59443;BME280;45247;47.466;19.004;2023-07-20T00:31:28;99181.59;;;21.58;100.00
59443;BME280;45247;47.466;19.004;2023-07-20T00:33:56;99183.88;;;21.46;100.00
59443;BME280;45247;47.466;19.004;2023-07-20T00:36:24;99191.31;;;21.36;100.00
59443;BME280;45247;47.466;19.004;2023-07-20T00:38:52;99194.38;;;21.25;100.00
59443;BME280;45247;47.466;19.004;2023-07-20T00:41:21;99191.06;;;21.15;100.00
59443;BME280;45247;47.466;19.004;2023-07-20T00:43:49;99185.44;;;21.01;100.00
59443;BME280;45247;47.466;19.004;2023-07-20T00:46:18;99176.13;;;20.89;100.00
59443;BME280;45247;47.466;19.004;2023-07-20T00:48:48;99179.13;;;20.94;100.00
59443;BME280;45247;47.466;19.004;2023-07-20T00:51:16;99164.69;;;21.26;100.00
59443;BME280;45247;47.466;19.004;2023-07-20T00:53:44;99169.69;;;21.38;100.00
59443;BME280;45247;47.466;19.004;2023-07-20T00:56:12;99160.44;;;21.40;100.00
59443;BME280;45247;47.466;19.004;2023-07-20T00:58:40;99167.84;;;21.30;100.00
59443;BME280;45247;47.466;19.004;2023-07-20T01:01:09;99163.56;;;21.21;100.00
59443;BME280;45247;47.466;19.004;2023-07-20T01:03:37;99146.97;;;21.17;100.00
59443;BME280;45247;47.466;19.004;2023-07-20T01:06:14;99148.91;;;21.00;100.00
59443;BME280;45247;47.466;19.004;2023-07-20T01:08:47;99143.06;;;20.97;100.00
59443;BME280;45247;47.466;19.004;2023-07-20T01:11:23;99142.56;;;20.93;100.00
59443;BME280;45247;47.466;19.004;2023-07-20T01:13:56;99134.22;;;20.88;100.00
59443;BME280;45247;47.466;19.004;2023-07-20T01:16:24;99126.19;;;20.88;100.00
59443;BME280;45247;47.466;19.004;2023-07-20T01:18:52;99130.72;;;20.88;100.00
59443;BME280;45247;47.466;19.004;2023-07-20T01:21:28;99137.09;;;20.87;100.00
59443;BME280;45247;47.466;19.004;2023-07-20T01:24:17;99141.44;;;20.88;100.00
59443;BME280;45247;47.466;19.004;2023-07-20T01:27:19;99132.56;;;20.87;100.00
59443;BME280;45247;47.466;19.004;2023-07-20T01:32:57;99132.38;;;20.89;100.00
59443;BME280;45247;47.466;19.004;2023-07-20T01:35:29;99133.22;;;20.89;100.00
59443;BME280;45247;47.466;19.004;2023-07-20T01:37:58;99138.94;;;20.86;100.00
59443;BME280;45247;47.466;19.004;2023-07-20T01:40:27;99147.63;;;20.88;100.00
59443;BME280;45247;47.466;19.004;2023-07-20T01:42:56;99145.97;;;20.87;100.00
59443;BME280;45247;47.466;19.004;2023-07-20T01:45:24;99145.16;;;20.87;100.00
59443;BME280;45247;47.466;19.004;2023-07-20T01:47:53;99152.50;;;20.85;100.00
59443;BME280;45247;47.466;19.004;2023-07-20T01:50:23;99158.72;;;20.85;100.00
59443;BME280;45247;47.466;19.004;2023-07-20T01:52:51;99168.47;;;20.78;100.00
59443;BME280;45247;47.466;19.004;2023-07-20T01:55:19;99170.16;;;20.79;100.00
59443;BME280;45247;47.466;19.004;2023-07-20T01:57:47;99169.31;;;20.79;100.00
59443;BME280;45247;47.466;19.004;2023-07-20T02:00:16;99174.69;;;20.79;100.00
59443;BME280;45247;47.466;19.004;2023-07-20T02:02:45;99178.00;;;20.81;100.00
59443;BME280;45247;47.466;19.004;2023-07-20T02:05:14;99179.03;;;20.80;100.00
59443;BME280;45247;47.466;19.004;2023-07-20T02:07:43;99181.50;;;20.81;100.00
59443;BME280;45247;47.466;19.004;2023-07-20T02:10:12;99182.72;;;20.79;100.00
59443;BME280;45247;47.466;19.004;2023-07-20T02:12:40;99181.56;;;20.73;100.00
59443;BME280;45247;47.466;19.004;2023-07-20T02:15:09;99176.56;;;20.70;100.00
59443;BME280;45247;47.466;19.004;2023-07-20T02:17:38;99174.72;;;20.70;100.00
59443;BME280;45247;47.466;19.004;2023-07-20T02:20:08;99175.22;;;20.66;100.00
59443;BME280;45247;47.466;19.004;2023-07-20T02:22:37;99171.88;;;20.64;100.00
59443;BME280;45247;47.466;19.004;2023-07-20T02:25:08;99172.56;;;20.58;100.00
59443;BME280;45247;47.466;19.004;2023-07-20T02:27:37;99175.59;;;20.55;100.00
59443;BME280;45247;47.466;19.004;2023-07-20T02:30:06;99181.47;;;20.50;100.00
59443;BME280;45247;47.466;19.004;2023-07-20T02:32:36;99173.91;;;20.45;100.00
59443;BME280;45247;47.466;19.004;2023-07-20T02:35:05;99182.78;;;20.46;100.00
59443;BME280;45247;47.466;19.004;2023-07-20T02:37:34;99183.50;;;20.48;100.00
59443;BME280;45247;47.466;19.004;2023-07-20T02:40:04;99188.97;;;20.46;100.00
59443;BME280;45247;47.466;19.004;2023-07-20T02:42:35;99186.00;;;20.49;100.00
59443;BME280;45247;47.466;19.004;2023-07-20T02:45:04;99179.63;;;20.50;100.00
59443;BME280;45247;47.466;19.004;2023-07-20T02:47:33;99171.44;;;20.52;100.00
59443;BME280;45247;47.466;19.004;2023-07-20T02:50:01;99177.28;;;20.56;100.00
59443;BME280;45247;47.466;19.004;2023-07-20T02:52:29;99183.28;;;20.58;100.00
59443;BME280;45247;47.466;19.004;2023-07-20T02:54:57;99184.31;;;20.57;100.00
59443;BME280;45247;47.466;19.004;2023-07-20T02:57:26;99192.34;;;20.57;100.00
59443;BME280;45247;47.466;19.004;2023-07-20T02:59:55;99184.66;;;20.54;100.00
59443;BME280;45247;47.466;19.004;2023-07-20T03:02:23;99184.47;;;20.55;100.00
59443;BME280;45247;47.466;19.004;2023-07-20T03:04:52;99181.13;;;20.53;100.00
59443;BME280;45247;47.466;19.004;2023-07-20T03:07:20;99182.13;;;20.60;100.00
59443;BME280;45247;47.466;19.004;2023-07-20T03:09:49;99188.06;;;20.87;100.00
59443;BME280;45247;47.466;19.004;2023-07-20T03:12:18;99193.31;;;21.11;100.00
59443;BME280;45247;47.466;19.004;2023-07-20T03:14:46;99196.16;;;21.41;98.97
59443;BME280;45247;47.466;19.004;2023-07-20T03:17:15;99192.72;;;21.55;96.80
59443;BME280;45247;47.466;19.004;2023-07-20T03:19:43;99197.97;;;21.71;95.49
59443;BME280;45247;47.466;19.004;2023-07-20T03:22:12;99199.56;;;21.81;94.77
59443;BME280;45247;47.466;19.004;2023-07-20T03:24:40;99203.25;;;21.80;96.63
59443;BME280;45247;47.466;19.004;2023-07-20T03:27:08;99198.25;;;21.77;95.27
59443;BME280;45247;47.466;19.004;2023-07-20T03:29:36;99196.41;;;21.77;93.68
59443;BME280;45247;47.466;19.004;2023-07-20T03:32:05;99193.44;;;21.72;91.80
59443;BME280;45247;47.466;19.004;2023-07-20T03:34:34;99197.78;;;21.73;89.32
59443;BME280;45247;47.466;19.004;2023-07-20T03:37:03;99210.66;;;21.78;87.20
59443;BME280;45247;47.466;19.004;2023-07-20T03:39:32;99210.13;;;21.82;86.51
59443;BME280;45247;47.466;19.004;2023-07-20T03:42:00;99222.16;;;21.86;86.63
59443;BME280;45247;47.466;19.004;2023-07-20T03:44:28;99220.50;;;21.85;85.79
59443;BME280;45247;47.466;19.004;2023-07-20T03:46:57;99227.53;;;21.86;84.76
59443;BME280;45247;47.466;19.004;2023-07-20T03:49:25;99229.50;;;21.92;85.71
59443;BME280;45247;47.466;19.004;2023-07-20T03:51:55;99232.66;;;21.96;81.80
59443;BME280;45247;47.466;19.004;2023-07-20T03:54:23;99236.50;;;22.02;82.11
59443;BME280;45247;47.466;19.004;2023-07-20T03:56:51;99236.94;;;22.05;82.88
59443;BME280;45247;47.466;19.004;2023-07-20T03:59:20;99241.78;;;22.10;82.31
59443;BME280;45247;47.466;19.004;2023-07-20T04:01:48;99230.88;;;22.11;83.09
59443;BME280;45247;47.466;19.004;2023-07-20T04:04:16;99249.72;;;22.26;81.78
59443;BME280;45247;47.466;19.004;2023-07-20T04:06:44;99245.94;;;22.35;78.64
59443;BME280;45247;47.466;19.004;2023-07-20T04:09:13;99236.41;;;22.47;76.93
59443;BME280;45247;47.466;19.004;2023-07-20T04:11:41;99240.31;;;22.60;75.98
59443;BME280;45247;47.466;19.004;2023-07-20T04:14:09;99234.66;;;22.69;76.00
59443;BME280;45247;47.466;19.004;2023-07-20T04:16:37;99237.47;;;22.76;76.92
59443;BME280;45247;47.466;19.004;2023-07-20T04:19:06;99229.31;;;22.84;74.70
59443;BME280;45247;47.466;19.004;2023-07-20T04:21:39;99226.63;;;22.99;81.46
59443;BME280;45247;47.466;19.004;2023-07-20T04:24:08;99215.66;;;23.15;76.63
59443;BME280;45247;47.466;19.004;2023-07-20T04:26:38;99213.38;;;23.55;78.75
59443;BME280;45247;47.466;19.004;2023-07-20T04:29:06;99214.41;;;23.69;81.13
59443;BME280;45247;47.466;19.004;2023-07-20T04:31:34;99219.22;;;23.95;78.86
59443;BME280;45247;47.466;19.004;2023-07-20T04:34:02;99217.47;;;24.65;74.35
59443;BME280;45247;47.466;19.004;2023-07-20T04:36:31;99224.03;;;24.90;71.18
59443;BME280;45247;47.466;19.004;2023-07-20T04:38:59;99224.78;;;25.80;64.13
59443;BME280;45247;47.466;19.004;2023-07-20T04:41:27;99228.75;;;26.24;63.77
59443;BME280;45247;47.466;19.004;2023-07-20T04:43:57;99223.78;;;27.26;59.64
59443;BME280;45247;47.466;19.004;2023-07-20T04:46:25;99226.09;;;27.92;57.54
59443;BME280;45247;47.466;19.004;2023-07-20T04:48:54;99227.13;;;29.58;51.66
59443;BME280;45247;47.466;19.004;2023-07-20T04:51:22;99220.28;;;30.09;46.86
59443;BME280;45247;47.466;19.004;2023-07-20T04:53:50;99219.84;;;30.35;45.43
59443;BME280;45247;47.466;19.004;2023-07-20T04:56:19;99226.22;;;29.64;46.80
59443;BME280;45247;47.466;19.004;2023-07-20T04:58:50;99227.91;;;29.77;46.04
59443;BME280;45247;47.466;19.004;2023-07-20T05:01:20;99228.56;;;30.96;44.83
59443;BME280;45247;47.466;19.004;2023-07-20T05:03:48;99233.00;;;31.66;43.57
59443;BME280;45247;47.466;19.004;2023-07-20T05:06:17;99221.44;;;31.76;43.17
59443;BME280;45247;47.466;19.004;2023-07-20T05:08:45;99220.72;;;31.52;41.89
59443;BME280;45247;47.466;19.004;2023-07-20T05:11:14;99218.44;;;31.20;43.48
59443;BME280;45247;47.466;19.004;2023-07-20T05:13:42;99210.28;;;31.32;41.96
59443;BME280;45247;47.466;19.004;2023-07-20T05:16:10;99216.28;;;31.34;42.31
59443;BME280;45247;47.466;19.004;2023-07-20T05:18:40;99219.00;;;30.23;44.54
59443;BME280;45247;47.466;19.004;2023-07-20T05:21:08;99228.25;;;30.46;44.73
59443;BME280;45247;47.466;19.004;2023-07-20T05:23:36;99221.97;;;30.68;43.96
59443;BME280;45247;47.466;19.004;2023-07-20T05:26:04;99232.03;;;30.91;42.00
59443;BME280;45247;47.466;19.004;2023-07-20T05:28:32;99227.44;;;30.45;43.48
59443;BME280;45247;47.466;19.004;2023-07-20T05:31:02;99231.31;;;30.61;43.51
59443;BME280;45247;47.466;19.004;2023-07-20T05:33:30;99224.00;;;30.73;43.33
59443;BME280;45247;47.466;19.004;2023-07-20T05:36:00;99228.59;;;30.49;43.43
59443;BME280;45247;47.466;19.004;2023-07-20T05:38:28;99227.38;;;30.10;45.12
59443;BME280;45247;47.466;19.004;2023-07-20T05:40:59;99225.00;;;31.07;42.54
59443;BME280;45247;47.466;19.004;2023-07-20T05:43:28;99229.63;;;31.07;42.67
59443;BME280;45247;47.466;19.004;2023-07-20T05:45:56;99232.16;;;30.85;42.96
59443;BME280;45247;47.466;19.004;2023-07-20T05:48:25;99218.81;;;31.24;42.82
59443;BME280;45247;47.466;19.004;2023-07-20T05:50:53;99223.22;;;29.96;44.27
59443;BME280;45247;47.466;19.004;2023-07-20T05:53:23;99225.66;;;30.74;43.21
59443;BME280;45247;47.466;19.004;2023-07-20T05:55:54;99221.75;;;30.58;42.97
59443;BME280;45247;47.466;19.004;2023-07-20T05:58:23;99228.50;;;30.32;43.33
59443;BME280;45247;47.466;19.004;2023-07-20T06:00:51;99220.31;;;30.44;43.97
59443;BME280;45247;47.466;19.004;2023-07-20T06:03:19;99227.56;;;30.50;43.26
59443;BME280;45247;47.466;19.004;2023-07-20T06:05:48;99234.16;;;29.77;44.54
59443;BME280;45247;47.466;19.004;2023-07-20T06:08:16;99218.44;;;30.21;43.87
59443;BME280;45247;47.466;19.004;2023-07-20T06:10:49;99230.75;;;29.33;45.28
59443;BME280;45247;47.466;19.004;2023-07-20T06:13:18;99234.81;;;30.03;44.67
59443;BME280;45247;47.466;19.004;2023-07-20T06:15:47;99240.72;;;30.00;43.60
59443;BME280;45247;47.466;19.004;2023-07-20T06:18:15;99252.41;;;30.54;43.63
59443;BME280;45247;47.466;19.004;2023-07-20T06:20:48;99261.31;;;30.73;42.36
59443;BME280;45247;47.466;19.004;2023-07-20T06:23:17;99266.88;;;30.12;42.94
59443;BME280;45247;47.466;19.004;2023-07-20T06:25:47;99261.66;;;29.99;43.70
59443;BME280;45247;47.466;19.004;2023-07-20T06:28:15;99257.38;;;30.33;44.69
59443;BME280;45247;47.466;19.004;2023-07-20T06:30:44;99243.63;;;29.26;45.17
59443;BME280;45247;47.466;19.004;2023-07-20T06:33:13;99258.84;;;29.27;45.66
59443;BME280;45247;47.466;19.004;2023-07-20T06:35:41;99264.16;;;29.04;46.09
59443;BME280;45247;47.466;19.004;2023-07-20T06:38:10;99263.63;;;29.92;44.34
59443;BME280;45247;47.466;19.004;2023-07-20T06:40:41;99268.41;;;30.08;43.59
59443;BME280;45247;47.466;19.004;2023-07-20T06:43:11;99278.66;;;30.60;42.75
59443;BME280;45247;47.466;19.004;2023-07-20T06:45:42;99279.13;;;30.57;43.54
59443;BME280;45247;47.466;19.004;2023-07-20T06:48:10;99286.31;;;29.37;45.13
59443;BME280;45247;47.466;19.004;2023-07-20T06:50:38;99284.00;;;29.59;45.58
59443;BME280;45247;47.466;19.004;2023-07-20T06:53:07;99301.56;;;30.17;45.57
59443;BME280;45247;47.466;19.004;2023-07-20T06:55:35;99299.59;;;29.45;46.11
59443;BME280;45247;47.466;19.004;2023-07-20T06:58:08;99303.13;;;28.91;47.15
59443;BME280;45247;47.466;19.004;2023-07-20T07:00:38;99289.44;;;29.71;45.25
59443;BME280;45247;47.466;19.004;2023-07-20T07:03:06;99291.25;;;29.77;45.17
59443;BME280;45247;47.466;19.004;2023-07-20T07:05:36;99312.38;;;29.08;45.66
59443;BME280;45247;47.466;19.004;2023-07-20T07:08:05;99304.75;;;29.17;46.00
59443;BME280;45247;47.466;19.004;2023-07-20T07:10:35;99308.34;;;29.48;45.02
59443;BME280;45247;47.466;19.004;2023-07-20T07:13:03;99305.50;;;28.81;45.60
59443;BME280;45247;47.466;19.004;2023-07-20T07:15:32;99311.44;;;28.53;46.03
59443;BME280;45247;47.466;19.004;2023-07-20T07:18:01;99305.59;;;28.92;45.34
59443;BME280;45247;47.466;19.004;2023-07-20T07:20:30;99318.50;;;28.79;45.11
59443;BME280;45247;47.466;19.004;2023-07-20T07:22:58;99312.78;;;28.87;44.13
59443;BME280;45247;47.466;19.004;2023-07-20T07:25:27;99302.91;;;29.29;45.06
59443;BME280;45247;47.466;19.004;2023-07-20T07:27:55;99300.50;;;29.39;44.08
59443;BME280;45247;47.466;19.004;2023-07-20T07:30:23;99309.75;;;28.52;44.70
59443;BME280;45247;47.466;19.004;2023-07-20T07:32:52;99296.09;;;28.83;45.24
59443;BME280;45247;47.466;19.004;2023-07-20T07:35:21;99305.09;;;28.59;45.51
59443;BME280;45247;47.466;19.004;2023-07-20T07:37:49;99305.78;;;28.73;44.16
59443;BME280;45247;47.466;19.004;2023-07-20T07:40:38;99311.06;;;28.42;45.63
59443;BME280;45247;47.466;19.004;2023-07-20T07:43:06;99331.72;;;28.12;45.65
59443;BME280;45247;47.466;19.004;2023-07-20T07:45:35;99303.97;;;27.78;47.18
59443;BME280;45247;47.466;19.004;2023-07-20T07:48:04;99306.31;;;27.61;47.91
59443;BME280;45247;47.466;19.004;2023-07-20T07:50:34;99289.88;;;27.56;47.06
59443;BME280;45247;47.466;19.004;2023-07-20T07:53:03;99317.03;;;27.94;46.45
59443;BME280;45247;47.466;19.004;2023-07-20T07:55:31;99306.81;;;28.21;45.96
59443;BME280;45247;47.466;19.004;2023-07-20T07:57:59;99297.53;;;28.11;45.07
59443;BME280;45247;47.466;19.004;2023-07-20T08:00:27;99305.91;;;28.03;45.42
59443;BME280;45247;47.466;19.004;2023-07-20T08:02:55;99308.50;;;28.23;45.01
59443;BME280;45247;47.466;19.004;2023-07-20T08:05:24;99299.09;;;27.93;46.12
59443;BME280;45247;47.466;19.004;2023-07-20T08:07:54;99310.63;;;28.70;45.55
59443;BME280;45247;47.466;19.004;2023-07-20T08:10:22;99304.22;;;29.08;44.68
59443;BME280;45247;47.466;19.004;2023-07-20T08:12:50;99299.78;;;29.14;44.29
59443;BME280;45247;47.466;19.004;2023-07-20T08:15:19;99311.31;;;29.09;44.59
59443;BME280;45247;47.466;19.004;2023-07-20T08:17:47;99314.22;;;29.08;44.69
59443;BME280;45247;47.466;19.004;2023-07-20T08:20:18;99306.63;;;28.98;43.92
59443;BME280;45247;47.466;19.004;2023-07-20T08:22:50;99310.56;;;28.77;44.67
59443;BME280;45247;47.466;19.004;2023-07-20T08:25:20;99307.25;;;28.75;44.14
59443;BME280;45247;47.466;19.004;2023-07-20T08:27:49;99318.94;;;29.01;43.82
59443;BME280;45247;47.466;19.004;2023-07-20T08:30:17;99315.31;;;29.25;43.64
59443;BME280;45247;47.466;19.004;2023-07-20T08:32:45;99317.72;;;29.33;43.37
59443;BME280;45247;47.466;19.004;2023-07-20T08:35:14;99323.06;;;29.03;43.62
59443;BME280;45247;47.466;19.004;2023-07-20T08:37:42;99303.47;;;27.94;44.04
59443;BME280;45247;47.466;19.004;2023-07-20T08:40:11;99326.13;;;27.62;46.12
59443;BME280;45247;47.466;19.004;2023-07-20T08:42:43;99340.88;;;27.21;47.16
59443;BME280;45247;47.466;19.004;2023-07-20T08:45:12;99337.47;;;27.39;46.88
59443;BME280;45247;47.466;19.004;2023-07-20T08:47:42;99335.28;;;27.09;46.30
59443;BME280;45247;47.466;19.004;2023-07-20T08:50:12;99324.22;;;26.38;47.68
59443;BME280;45247;47.466;19.004;2023-07-20T08:52:41;99343.56;;;26.15;49.06
59443;BME280;45247;47.466;19.004;2023-07-20T08:55:10;99345.22;;;26.16;49.04
59443;BME280;45247;47.466;19.004;2023-07-20T08:57:40;99342.94;;;26.19;48.67
59443;BME280;45247;47.466;19.004;2023-07-20T09:00:12;99361.63;;;26.08;48.40
59443;BME280;45247;47.466;19.004;2023-07-20T09:02:41;99371.19;;;26.04;48.53
59443;BME280;45247;47.466;19.004;2023-07-20T09:05:10;99363.44;;;25.81;48.20
59443;BME280;45247;47.466;19.004;2023-07-20T09:07:41;99369.56;;;26.09;49.31
59443;BME280;45247;47.466;19.004;2023-07-20T09:10:09;99362.34;;;26.76;46.52
59443;BME280;45247;47.466;19.004;2023-07-20T09:12:40;99373.28;;;27.48;46.11
59443;BME280;45247;47.466;19.004;2023-07-20T09:15:11;99379.81;;;27.91;43.92
59443;BME280;45247;47.466;19.004;2023-07-20T09:17:45;99373.72;;;28.34;44.50
59443;BME280;45247;47.466;19.004;2023-07-20T09:20:14;99370.47;;;28.82;44.08
59443;BME280;45247;47.466;19.004;2023-07-20T09:22:47;99362.91;;;29.09;42.53
59443;BME280;45247;47.466;19.004;2023-07-20T09:25:17;99366.34;;;28.73;43.85
59443;BME280;45247;47.466;19.004;2023-07-20T09:27:48;99372.19;;;29.20;42.40
59443;BME280;45247;47.466;19.004;2023-07-20T09:30:19;99369.31;;;28.97;42.39
59443;BME280;45247;47.466;19.004;2023-07-20T09:32:58;99366.47;;;29.10;41.45
59443;BME280;45247;47.466;19.004;2023-07-20T09:35:27;99366.03;;;29.13;42.10
59443;BME280;45247;47.466;19.004;2023-07-20T09:38:08;99372.88;;;28.90;42.14
59443;BME280;45247;47.466;19.004;2023-07-20T09:40:39;99356.06;;;28.57;43.16
59443;BME280;45247;47.466;19.004;2023-07-20T09:43:11;99365.47;;;28.79;42.43
59443;BME280;45247;47.466;19.004;2023-07-20T09:45:43;99373.25;;;29.01;42.16
59443;BME280;45247;47.466;19.004;2023-07-20T09:48:15;99373.63;;;28.79;42.04
59443;BME280;45247;47.466;19.004;2023-07-20T09:50:49;99366.56;;;28.72;41.67
59443;BME280;45247;47.466;19.004;2023-07-20T09:53:19;99357.25;;;28.86;42.15
59443;BME280;45247;47.466;19.004;2023-07-20T09:55:47;99369.97;;;28.67;41.36
59443;BME280;45247;47.466;19.004;2023-07-20T09:58:16;99379.38;;;28.01;43.32
59443;BME280;45247;47.466;19.004;2023-07-20T10:00:48;99368.59;;;27.81;43.84
59443;BME280;45247;47.466;19.004;2023-07-20T10:03:21;99377.81;;;28.50;43.84
59443;BME280;45247;47.466;19.004;2023-07-20T10:05:54;99386.97;;;29.06;42.64
59443;BME280;45247;47.466;19.004;2023-07-20T10:08:25;99386.59;;;29.20;41.73
59443;BME280;45247;47.466;19.004;2023-07-20T10:10:57;99378.75;;;29.56;40.03
59443;BME280;45247;47.466;19.004;2023-07-20T10:13:26;99383.50;;;28.74;41.85
59443;BME280;45247;47.466;19.004;2023-07-20T10:15:59;99397.81;;;28.17;43.55
59443;BME280;45247;47.466;19.004;2023-07-20T10:18:31;99392.91;;;28.01;44.50
59443;BME280;45247;47.466;19.004;2023-07-20T10:21:02;99385.06;;;28.25;43.63
59443;BME280;45247;47.466;19.004;2023-07-20T10:23:35;99400.03;;;27.95;45.07
59443;BME280;45247;47.466;19.004;2023-07-20T10:26:03;99397.41;;;27.69;45.65
59443;BME280;45247;47.466;19.004;2023-07-20T10:28:37;99396.41;;;28.47;44.30
59443;BME280;45247;47.466;19.004;2023-07-20T10:31:09;99403.59;;;28.66;44.71
59443;BME280;45247;47.466;19.004;2023-07-20T10:33:38;99381.19;;;28.95;43.86
59443;BME280;45247;47.466;19.004;2023-07-20T10:36:07;99380.94;;;29.04;44.18
59443;BME280;45247;47.466;19.004;2023-07-20T10:38:39;99386.25;;;29.35;43.05
59443;BME280;45247;47.466;19.004;2023-07-20T10:41:18;99386.69;;;29.32;42.46
59443;BME280;45247;47.466;19.004;2023-07-20T10:43:47;99384.22;;;29.31;43.81
59443;BME280;45247;47.466;19.004;2023-07-20T10:46:33;99385.81;;;28.95;43.97
59443;BME280;45247;47.466;19.004;2023-07-20T10:49:04;99388.19;;;29.10;45.16
59443;BME280;45247;47.466;19.004;2023-07-20T10:51:39;99380.00;;;29.35;44.27
59443;BME280;45247;47.466;19.004;2023-07-20T10:54:08;99377.41;;;29.22;44.86
59443;BME280;45247;47.466;19.004;2023-07-20T10:56:37;99374.28;;;28.75;44.45
59443;BME280;45247;47.466;19.004;2023-07-20T10:59:17;99380.75;;;28.49;45.31
59443;BME280;45247;47.466;19.004;2023-07-20T11:01:48;99382.91;;;28.90;45.27
59443;BME280;45247;47.466;19.004;2023-07-20T11:04:17;99375.44;;;28.85;43.64
59443;BME280;45247;47.466;19.004;2023-07-20T11:06:46;99375.53;;;28.72;44.37
59443;BME280;45247;47.466;19.004;2023-07-20T11:09:22;99366.59;;;28.97;43.06
59443;BME280;45247;47.466;19.004;2023-07-20T11:12:09;99379.59;;;28.31;42.34
59443;BME280;45247;47.466;19.004;2023-07-20T11:14:40;99368.78;;;28.81;43.26
59443;BME280;45247;47.466;19.004;2023-07-20T11:17:15;99371.78;;;28.73;43.04
59443;BME280;45247;47.466;19.004;2023-07-20T11:19:48;99371.34;;;28.76;41.98
59443;BME280;45247;47.466;19.004;2023-07-20T11:22:20;99372.03;;;28.90;42.98
59443;BME280;45247;47.466;19.004;2023-07-20T11:24:48;99381.63;;;29.17;41.29
59443;BME280;45247;47.466;19.004;2023-07-20T11:27:17;99362.78;;;29.41;41.71
59443;BME280;45247;47.466;19.004;2023-07-20T11:29:49;99348.84;;;29.56;40.67
59443;BME280;45247;47.466;19.004;2023-07-20T11:32:22;99370.09;;;29.04;39.97
59443;BME280;45247;47.466;19.004;2023-07-20T11:34:50;99381.34;;;28.19;41.05
59443;BME280;45247;47.466;19.004;2023-07-20T11:37:19;99387.84;;;28.50;42.10
59443;BME280;45247;47.466;19.004;2023-07-20T11:39:47;99380.97;;;28.47;41.14
59443;BME280;45247;47.466;19.004;2023-07-20T11:42:19;99373.47;;;28.42;40.20
59443;BME280;45247;47.466;19.004;2023-07-20T11:44:51;99391.25;;;28.70;40.71
59443;BME280;45247;47.466;19.004;2023-07-20T11:47:21;99381.13;;;28.52;41.31
59443;BME280;45247;47.466;19.004;2023-07-20T11:49:49;99375.66;;;28.59;41.81
59443;BME280;45247;47.466;19.004;2023-07-20T11:52:23;99373.66;;;28.48;40.91
59443;BME280;45247;47.466;19.004;2023-07-20T11:54:52;99369.31;;;28.65;40.72
59443;BME280;45247;47.466;19.004;2023-07-20T11:57:20;99362.31;;;28.82;41.30
59443;BME280;45247;47.466;19.004;2023-07-20T11:59:55;99354.09;;;28.89;40.67
59443;BME280;45247;47.466;19.004;2023-07-20T12:02:27;99370.53;;;28.94;40.27
59443;BME280;45247;47.466;19.004;2023-07-20T12:04:56;99360.25;;;29.03;41.02
59443;BME280;45247;47.466;19.004;2023-07-20T12:07:26;99360.75;;;29.18;39.95
59443;BME280;45247;47.466;19.004;2023-07-20T12:10:06;99353.66;;;28.92;40.88
59443;BME280;45247;47.466;19.004;2023-07-20T12:12:34;99363.06;;;28.89;40.30
59443;BME280;45247;47.466;19.004;2023-07-20T12:15:15;99356.53;;;29.22;40.01
59443;BME280;45247;47.466;19.004;2023-07-20T12:17:45;99360.97;;;28.91;40.26
59443;BME280;45247;47.466;19.004;2023-07-20T12:20:24;99360.19;;;29.09;39.78
59443;BME280;45247;47.466;19.004;2023-07-20T12:22:56;99354.94;;;28.64;40.06
59443;BME280;45247;47.466;19.004;2023-07-20T12:25:33;99349.94;;;28.86;40.43
59443;BME280;45247;47.466;19.004;2023-07-20T12:28:01;99346.09;;;28.94;40.45
59443;BME280;45247;47.466;19.004;2023-07-20T12:30:30;99349.56;;;29.26;40.57
59443;BME280;45247;47.466;19.004;2023-07-20T12:33:00;99341.13;;;29.34;39.60
59443;BME280;45247;47.466;19.004;2023-07-20T12:35:29;99348.66;;;29.32;40.41
59443;BME280;45247;47.466;19.004;2023-07-20T12:37:58;99343.44;;;29.49;39.64
59443;BME280;45247;47.466;19.004;2023-07-20T12:40:26;99348.06;;;29.49;37.90
59443;BME280;45247;47.466;19.004;2023-07-20T12:42:55;99346.25;;;29.24;37.92
59443;BME280;45247;47.466;19.004;2023-07-20T12:45:23;99342.16;;;29.33;36.93
59443;BME280;45247;47.466;19.004;2023-07-20T12:47:51;99341.09;;;29.53;36.49
59443;BME280;45247;47.466;19.004;2023-07-20T12:50:21;99346.78;;;29.51;36.96
59443;BME280;45247;47.466;19.004;2023-07-20T12:52:49;99346.94;;;29.38;36.63
59443;BME280;45247;47.466;19.004;2023-07-20T12:55:17;99340.22;;;29.40;35.63
59443;BME280;45247;47.466;19.004;2023-07-20T12:57:46;99327.25;;;29.42;35.02
59443;BME280;45247;47.466;19.004;2023-07-20T13:00:15;99341.09;;;29.53;35.41
59443;BME280;45247;47.466;19.004;2023-07-20T13:02:44;99335.06;;;29.51;36.43
59443;BME280;45247;47.466;19.004;2023-07-20T13:05:12;99342.38;;;29.50;36.50